Sunday, December 16, 2018, 10:28 AM GMT
Back to Local

CYYY, Mont Joli, Que.

Location: , , Canada Lat: 48.6
Local Time: 10:28 AM GMT (10:28 GMT) Lon: -68.217
Time Zone: GMT Elev: 157 ft

Show me the last for .
Show Decoded

2018-12-16 10:00 METAR CYYY 161000Z 32011KT 15SM OVC025 M01/M05 A3023 RMK SC8 SLP242 =
2018-12-16 09:00 METAR CYYY 160900Z 31010G15KT 15SM OVC025 M00/M04 A3024 RMK SC8 SLP244 =
2018-12-16 08:00 METAR CYYY 160800Z 27007KT 15SM OVC026 M00/M03 A3025 RMK SC8 SLP247 =
2018-12-16 07:00 METAR CYYY 160700Z 28008KT 15SM OVC027 M00/M04 A3025 RMK SC8 SLP247 =
2018-12-16 06:00 METAR CYYY 160600Z 27005KT 15SM OVC028 M00/M04 A3024 RMK SC8 SLP245 =
2018-12-16 05:00 METAR CYYY 160500Z 28008KT 15SM OVC028 M00/M03 A3023 RMK SC8 SLP240 =
2018-12-16 04:00 METAR CYYY 160400Z 28011KT 15SM OVC030 M00/M03 A3021 RMK SC8 SLP233 =
2018-12-16 03:00 METAR CYYY 160300Z 27009KT 15SM OVC032 M00/M02 A3018 RMK SC8 SLP226 =
2018-12-16 02:00 METAR CYYY 160200Z 25009KT 15SM OVC035 01/M02 A3016 RMK SC8 SLP219 =
2018-12-16 01:00 METAR CYYY 160100Z 25013KT 15SM OVC040 01/M02 A3016 RMK SC8 SLP219 =
2018-12-16 00:00 METAR CYYY 160000Z 26010KT 15SM BKN045 01/M04 A3016 RMK SC6 SLP217 =
2018-12-15 23:00 METAR CYYY 152300Z 27008KT 30SM BKN045 01/M04 A3013 RMK SC7 SLP209 =
2018-12-15 22:00 METAR CYYY 152200Z 27008KT 30SM BKN042 01/M04 A3012 RMK SC7 SLP204 =
2018-12-15 21:00 METAR CYYY 152100Z 27010KT 30SM BKN046 01/M03 A3010 RMK SC7 SLP198 =
2018-12-15 20:00 METAR CYYY 152000Z 26012KT 30SM BKN055 02/M03 A3007 RMK SC7 SLP187 =
2018-12-15 19:00 METAR CYYY 151900Z 26013KT 30SM OVC040 02/M02 A3002 RMK SC8 SLP172 =
2018-12-15 18:00 METAR CYYY 151800Z 26014G20KT 30SM FEW037 BKN065 02/M02 A3000 RMK SC2SC3 SLP164
                 =
2018-12-15 17:00 METAR CYYY 151700Z 25016G21KT 30SM BKN045 02/M02 A2999 RMK SC7 SLP160 =
2018-12-15 16:00 METAR CYYY 151600Z 26015G22KT 30SM BKN042 02/M02 A2998 RMK SC7 SLP156 =
2018-12-15 15:00 METAR CYYY 151500Z 26015G22KT 30SM OVC040 01/M02 A2998 RMK SC8 SLP155 =
2018-12-15 14:00 METAR CYYY 151400Z 25013G19KT 30SM OVC035 02/M02 A2996 RMK SC8 SLP151 =
2018-12-15 13:00 METAR CYYY 151300Z 24009KT 15SM OVC040 01/M02 A2996 RMK SC8 SLP148 =
2018-12-15 12:00 METAR CYYY 151200Z 24011KT 15SM OVC045 01/M02 A2993 RMK SC8 SLP140 =
2018-12-15 11:00 METAR CYYY 151100Z 25013KT 15SM OVC040 01/M02 A2992 RMK SC8 SLP135 =
2018-12-15 10:32 METAR CYYY 151032Z 25014KT 15SM OVC036 01/M01 A2991 RMK SC8 SLP133 =

Support USWX by starting your Amazon purchase here.